Time;durP1;ratioP1;P1;durP2;ratioP2;P2;SDS_P1;SDS_P2;PMS_P1;PMS_P2;Temp;Humidity;BMP_temperature;BMP_pressure;BME280_temperature;BME280_humidity;BME280_pressure;Samples;Min_cycle;Max_cycle;Signal;HPM_P1;HPM_P2
2021/10/29 00:01:13;;;;;;;33.80;22.45;;;10.60;99.90;;;;;;4968408;28;20043;-72
2021/10/29 00:03:40;;;;;;;28.33;19.73;;;10.60;99.90;;;;;;4970198;28;20385;-65
2021/10/29 00:06:07;;;;;;;28.92;20.02;;;10.60;99.90;;;;;;4949937;28;20094;-72
2021/10/29 00:08:35;;;;;;;29.20;21.05;;;10.60;99.90;;;;;;4965029;28;20121;-66
2021/10/29 00:11:02;;;;;;;34.47;21.98;;;10.60;99.90;;;;;;4949797;28;20085;-70
2021/10/29 00:13:29;;;;;;;32.45;21.38;;;10.50;99.90;;;;;;4961787;28;20118;-65
2021/10/29 00:15:56;;;;;;;27.05;20.13;;;10.50;99.90;;;;;;4969100;28;20050;-69
2021/10/29 00:18:24;;;;;;;37.28;23.63;;;10.50;99.90;;;;;;4964605;28;20055;-67
2021/10/29 00:20:55;;;;;;;36.90;24.40;;;10.50;99.90;;;;;;4961625;28;20384;-66
2021/10/29 00:23:24;;;;;;;33.58;21.67;;;10.40;99.90;;;;;;4969695;28;20615;-74
2021/10/29 00:25:51;;;;;;;35.55;23.65;;;10.40;99.90;;;;;;4970737;28;20681;-68
2021/10/29 00:28:18;;;;;;;39.17;23.52;;;10.40;99.90;;;;;;4980678;28;20464;-65
2021/10/29 00:30:45;;;;;;;42.42;24.73;;;10.30;99.90;;;;;;4969928;28;20055;-74
2021/10/29 00:33:15;;;;;;;33.75;23.05;;;10.30;99.90;;;;;;4968433;28;20165;-68
2021/10/29 00:35:43;;;;;;;38.95;23.58;;;10.20;99.90;;;;;;4960899;28;20445;-65
2021/10/29 00:38:10;;;;;;;36.13;23.63;;;10.20;99.90;;;;;;4950045;28;20047;-69
2021/10/29 00:40:40;;;;;;;35.65;23.27;;;10.20;99.90;;;;;;4969837;28;20075;-72
2021/10/29 00:43:09;;;;;;;39.00;23.52;;;10.10;99.90;;;;;;4947569;28;20098;-68
2021/10/29 00:45:37;;;;;;;32.75;22.30;;;10.20;99.90;;;;;;4950044;28;20143;-72
2021/10/29 00:48:06;;;;;;;36.38;22.60;;;10.10;99.90;;;;;;4964591;28;20047;-66
2021/10/29 00:50:33;;;;;;;33.38;21.48;;;10.10;99.90;;;;;;4969303;28;20121;-66
2021/10/29 00:53:00;;;;;;;48.83;26.58;;;10.10;99.90;;;;;;4975007;28;20042;-66
2021/10/29 00:55:27;;;;;;;32.72;22.92;;;10.10;99.90;;;;;;4967918;28;20129;-65
2021/10/29 00:57:54;;;;;;;41.13;25.42;;;10.10;99.90;;;;;;4970542;28;20113;-69
2021/10/29 01:00:22;;;;;;;36.92;24.30;;;10.10;99.90;;;;;;4966778;28;20059;-65
2021/10/29 01:02:54;;;;;;;32.63;22.27;;;10.10;99.90;;;;;;4968699;28;20458;-66
2021/10/29 01:05:21;;;;;;;35.33;23.40;;;10.10;99.90;;;;;;4969067;28;20082;-66
2021/10/29 01:07:48;;;;;;;29.42;22.52;;;10.00;99.90;;;;;;4957769;28;20058;-66
2021/10/29 01:10:15;;;;;;;28.60;21.70;;;10.10;99.90;;;;;;4965071;28;20078;-65
2021/10/29 01:12:42;;;;;;;34.13;22.48;;;10.00;99.90;;;;;;4968636;28;20070;-68
2021/10/29 01:15:09;;;;;;;34.17;22.38;;;10.00;99.90;;;;;;4969243;28;20082;-66
2021/10/29 01:17:37;;;;;;;30.85;20.55;;;10.00;99.90;;;;;;4969182;28;20051;-66
2021/10/29 01:20:06;;;;;;;33.10;21.58;;;10.00;99.90;;;;;;4968145;28;20362;-69
2021/10/29 01:22:33;;;;;;;36.45;23.50;;;9.90;99.90;;;;;;4963588;28;20101;-67
2021/10/29 01:25:00;;;;;;;31.27;22.17;;;9.90;99.90;;;;;;4951114;28;20193;-65
2021/10/29 01:27:26;;;;;;;31.95;22.67;;;9.90;99.90;;;;;;4949604;28;20476;-68
2021/10/29 01:29:53;;;;;;;31.45;23.40;;;9.90;99.90;;;;;;4948630;28;20063;-65
2021/10/29 01:32:21;;;;;;;32.78;24.00;;;10.00;99.90;;;;;;4951133;28;20043;-65
2021/10/29 01:34:49;;;;;;;28.75;20.77;;;9.90;99.90;;;;;;4974758;28;20449;-66
2021/10/29 01:37:16;;;;;;;30.85;22.88;;;9.80;99.90;;;;;;4958988;28;20421;-67
2021/10/29 01:39:43;;;;;;;26.45;21.23;;;9.80;99.90;;;;;;4949176;28;20586;-65
2021/10/29 01:42:10;;;;;;;36.05;22.95;;;9.80;99.90;;;;;;4950932;28;20097;-65
2021/10/29 01:44:37;;;;;;;35.63;22.15;;;9.90;99.90;;;;;;4949721;28;20121;-66
2021/10/29 01:47:05;;;;;;;33.13;21.00;;;9.80;99.90;;;;;;4948611;28;20047;-65
2021/10/29 01:49:32;;;;;;;32.60;20.58;;;9.90;99.90;;;;;;4950770;28;20560;-66
2021/10/29 01:51:59;;;;;;;27.23;19.65;;;9.90;99.90;;;;;;4944639;28;20090;-65
2021/10/29 01:54:26;;;;;;;26.92;18.27;;;9.90;99.90;;;;;;4950827;28;20046;-67
2021/10/29 01:56:57;;;;;;;29.92;21.65;;;9.80;99.90;;;;;;4959626;28;20114;-67
2021/10/29 01:59:25;;;;;;;30.33;22.75;;;9.80;99.90;;;;;;4948645;28;20070;-66
2021/10/29 02:01:54;;;;;;;28.42;20.65;;;9.80;99.90;;;;;;4947603;28;20075;-68
2021/10/29 02:04:22;;;;;;;30.38;21.40;;;9.90;99.90;;;;;;4949086;28;20057;-66
2021/10/29 02:06:49;;;;;;;27.10;20.67;;;9.90;99.90;;;;;;4949507;28;20074;-66
2021/10/29 02:09:17;;;;;;;25.80;19.00;;;9.90;99.90;;;;;;4949633;28;20044;-66
2021/10/29 02:11:43;;;;;;;29.45;20.88;;;9.90;99.90;;;;;;4949599;28;20137;-71
2021/10/29 02:14:11;;;;;;;31.05;21.92;;;9.90;99.90;;;;;;4946254;28;20058;-66
2021/10/29 02:16:38;;;;;;;26.33;19.90;;;9.90;99.90;;;;;;4964599;28;20133;-69
2021/10/29 02:19:05;;;;;;;26.15;21.13;;;9.90;99.90;;;;;;4953812;28;20077;-66
2021/10/29 02:21:32;;;;;;;28.48;19.60;;;9.90;99.90;;;;;;4947217;28;20047;-66
2021/10/29 02:23:59;;;;;;;30.88;22.67;;;9.80;99.90;;;;;;4945873;28;20110;-65
2021/10/29 02:26:28;;;;;;;29.92;20.65;;;9.80;99.90;;;;;;4939096;28;20039;-71
2021/10/29 02:28:56;;;;;;;28.20;21.70;;;9.80;99.90;;;;;;4948750;28;20110;-66
2021/10/29 02:31:25;;;;;;;27.27;20.73;;;9.90;99.90;;;;;;4950286;28;20059;-66
2021/10/29 02:33:53;;;;;;;26.30;22.63;;;9.80;99.90;;;;;;4943846;28;20043;-69
2021/10/29 02:36:21;;;;;;;25.77;21.52;;;9.80;99.90;;;;;;4944459;28;20137;-65
2021/10/29 02:38:48;;;;;;;28.90;21.90;;;9.80;99.90;;;;;;4947849;28;20052;-69
2021/10/29 02:41:15;;;;;;;31.20;21.63;;;9.80;99.90;;;;;;4947385;28;20483;-66
2021/10/29 02:43:44;;;;;;;29.90;20.60;;;9.80;99.90;;;;;;4944897;28;20051;-66
2021/10/29 02:46:11;;;;;;;28.75;22.50;;;9.80;99.90;;;;;;4942938;28;20071;-67
2021/10/29 02:48:38;;;;;;;27.08;20.52;;;9.80;99.90;;;;;;4941444;28;20122;-69
2021/10/29 02:51:05;;;;;;;27.70;22.35;;;9.80;99.90;;;;;;4946254;28;20626;-69
2021/10/29 02:53:33;;;;;;;33.00;24.20;;;9.80;99.90;;;;;;4944078;28;20047;-65
2021/10/29 02:56:00;;;;;;;33.50;25.20;;;9.80;99.90;;;;;;4961070;28;20102;-69
2021/10/29 02:58:30;;;;;;;37.15;24.67;;;9.80;99.90;;;;;;4963232;28;20137;-66
2021/10/29 03:00:58;;;;;;;30.63;22.17;;;9.80;99.90;;;;;;4967711;28;20179;-75
2021/10/29 03:03:27;;;;;;;25.98;22.70;;;9.80;99.90;;;;;;4970214;28;20150;-66
2021/10/29 03:05:54;;;;;;;36.95;24.05;;;9.80;99.90;;;;;;4971552;28;20666;-65
2021/10/29 03:08:22;;;;;;;33.17;25.10;;;9.80;99.90;;;;;;4968804;28;20546;-72
2021/10/29 03:10:49;;;;;;;31.02;23.30;;;9.80;99.90;;;;;;4970038;28;20102;-68
2021/10/29 03:13:16;;;;;;;33.13;23.52;;;9.80;99.90;;;;;;4971500;28;20103;-68
2021/10/29 03:15:46;;;;;;;34.15;25.63;;;9.80;99.90;;;;;;4969530;28;20484;-72
2021/10/29 03:18:13;;;;;;;33.33;25.60;;;9.80;99.90;;;;;;4968688;28;20050;-69
2021/10/29 03:20:41;;;;;;;36.58;25.15;;;9.80;99.90;;;;;;4970689;28;20078;-66
2021/10/29 03:23:08;;;;;;;34.90;26.38;;;9.70;99.90;;;;;;4970896;28;20467;-66
2021/10/29 03:25:35;;;;;;;35.15;25.85;;;9.70;99.90;;;;;;4968619;28;20070;-68
2021/10/29 03:28:01;;;;;;;43.45;27.20;;;9.70;99.90;;;;;;4969297;28;20131;-65
2021/10/29 03:30:29;;;;;;;33.13;25.33;;;9.70;99.90;;;;;;4970891;28;20094;-66
2021/10/29 03:32:57;;;;;;;30.88;24.52;;;9.70;99.90;;;;;;4970723;28;20046;-70
2021/10/29 03:35:24;;;;;;;37.63;25.80;;;9.60;99.90;;;;;;4970025;28;20152;-68
2021/10/29 03:40:48;;;;;;;37.72;30.05;;;9.60;99.90;;;;;;4967501;28;20500;-65
2021/10/29 03:43:52;;;;;;;31.70;25.88;;;9.60;99.90;;;;;;4963526;28;20524;-65
2021/10/29 03:46:16;;;;;;;36.95;25.95;;;9.60;99.90;;;;;;4967407;28;20095;-65
2021/10/29 03:51:33;;;;;;;41.47;28.00;;;9.60;99.90;;;;;;4970215;28;20039;-65
2021/10/29 03:56:30;;;;;;;36.80;29.48;;;9.70;99.90;;;;;;4965914;28;20047;-66
2021/10/29 03:58:59;;;;;;;35.03;27.63;;;9.70;99.90;;;;;;4962189;28;20050;-67
2021/10/29 04:01:27;;;;;;;40.07;29.47;;;9.70;99.90;;;;;;4966645;28;20039;-70
2021/10/29 04:03:57;;;;;;;35.85;27.42;;;9.70;99.90;;;;;;4986360;28;20108;-74
2021/10/29 04:06:24;;;;;;;39.30;30.05;;;9.60;99.90;;;;;;4969014;28;20042;-65
2021/10/29 04:08:52;;;;;;;40.25;26.63;;;9.60;99.90;;;;;;4965943;28;20453;-67
2021/10/29 04:11:24;;;;;;;48.08;32.17;;;9.60;99.90;;;;;;4969864;28;20058;-65
2021/10/29 04:13:51;;;;;;;46.20;29.50;;;9.60;99.90;;;;;;4970055;28;20046;-65
2021/10/29 04:16:19;;;;;;;39.47;27.23;;;9.60;99.90;;;;;;4967454;28;20066;-69
2021/10/29 04:18:46;;;;;;;47.25;29.42;;;9.60;99.90;;;;;;4971213;28;20072;-68
2021/10/29 04:21:13;;;;;;;47.22;29.67;;;9.60;99.90;;;;;;4976712;28;20178;-66
2021/10/29 04:23:40;;;;;;;40.90;30.35;;;9.60;99.90;;;;;;4970183;28;20150;-73
2021/10/29 04:26:07;;;;;;;41.83;30.77;;;9.60;99.90;;;;;;4950148;28;20453;-66
2021/10/29 04:28:34;;;;;;;52.25;33.40;;;9.60;99.90;;;;;;4950268;28;20047;-67
2021/10/29 04:31:04;;;;;;;50.03;32.38;;;9.60;99.90;;;;;;4952579;28;20043;-65
2021/10/29 04:33:31;;;;;;;45.35;31.23;;;9.60;99.90;;;;;;4950423;28;20144;-65
2021/10/29 04:35:58;;;;;;;45.65;31.73;;;9.60;99.90;;;;;;4943560;28;20082;-66
2021/10/29 04:38:25;;;;;;;49.65;30.92;;;9.60;99.90;;;;;;4955551;28;20094;-65
2021/10/29 04:40:52;;;;;;;45.05;28.90;;;9.70;99.90;;;;;;4951882;28;20130;-66
2021/10/29 04:43:20;;;;;;;45.33;32.00;;;9.60;99.90;;;;;;4951255;28;20057;-70
2021/10/29 04:45:47;;;;;;;42.90;31.55;;;9.60;99.90;;;;;;4948030;28;20510;-66
2021/10/29 04:48:14;;;;;;;50.75;31.85;;;9.50;99.90;;;;;;4957106;28;20051;-67
2021/10/29 04:50:41;;;;;;;43.90;33.53;;;9.50;99.90;;;;;;4952220;28;20074;-66
2021/10/29 04:53:10;;;;;;;52.95;36.75;;;9.60;99.90;;;;;;4952294;28;20040;-69
2021/10/29 04:55:38;;;;;;;46.33;31.33;;;9.60;99.90;;;;;;4952080;28;20171;-65
2021/10/29 04:58:06;;;;;;;48.03;34.17;;;9.50;99.90;;;;;;4949553;28;20113;-66
2021/10/29 05:00:34;;;;;;;46.05;34.47;;;9.50;99.90;;;;;;4950832;28;20059;-66
2021/10/29 05:03:05;;;;;;;49.90;35.40;;;9.50;99.90;;;;;;4949650;28;20358;-68
2021/10/29 05:05:34;;;;;;;52.13;35.17;;;9.50;99.90;;;;;;4963487;28;20500;-66
2021/10/29 05:08:05;;;;;;;51.45;35.30;;;9.50;99.90;;;;;;4966601;28;20121;-65
2021/10/29 05:10:33;;;;;;;53.30;34.17;;;9.50;99.90;;;;;;4967811;28;20077;-66
2021/10/29 05:13:01;;;;;;;49.53;33.30;;;9.50;99.90;;;;;;4966495;28;20046;-67
2021/10/29 05:15:28;;;;;;;49.10;34.85;;;9.50;99.90;;;;;;4969386;28;20616;-68
2021/10/29 05:17:55;;;;;;;57.25;36.72;;;9.40;99.90;;;;;;4967194;28;20456;-72
2021/10/29 05:20:23;;;;;;;51.00;35.50;;;9.40;99.90;;;;;;4967709;28;20070;-66
2021/10/29 05:22:50;;;;;;;51.10;33.58;;;9.40;99.90;;;;;;4969305;28;20067;-67
2021/10/29 05:25:17;;;;;;;52.55;34.63;;;9.40;99.90;;;;;;4958422;28;20062;-68
2021/10/29 05:27:44;;;;;;;44.95;33.88;;;9.40;99.90;;;;;;4968151;28;20054;-72
2021/10/29 05:30:11;;;;;;;54.53;34.33;;;9.40;99.90;;;;;;4972219;28;20105;-65
2021/10/29 05:32:38;;;;;;;52.72;36.85;;;9.30;99.90;;;;;;4954346;28;20050;-65
2021/10/29 05:35:06;;;;;;;58.47;35.75;;;9.40;99.90;;;;;;4969193;28;20070;-68
2021/10/29 05:37:35;;;;;;;55.38;40.63;;;9.30;99.90;;;;;;4971523;28;20058;-65
2021/10/29 05:40:04;;;;;;;53.60;35.95;;;9.30;99.90;;;;;;4965934;28;20050;-68
2021/10/29 05:42:33;;;;;;;53.88;36.92;;;9.30;99.90;;;;;;4967331;28;20051;-65
2021/10/29 05:45:02;;;;;;;51.85;34.95;;;9.30;99.90;;;;;;4966458;28;20042;-67
2021/10/29 05:47:29;;;;;;;61.90;38.25;;;9.20;99.90;;;;;;4969520;28;20086;-71
2021/10/29 05:49:56;;;;;;;52.55;37.42;;;9.20;99.90;;;;;;4967074;28;20071;-68
2021/10/29 05:52:25;;;;;;;56.45;39.25;;;9.30;99.90;;;;;;4967273;28;20468;-79
2021/10/29 05:57:23;;;;;;;58.28;39.90;;;9.30;99.90;;;;;;4969313;28;20074;-74
2021/10/29 05:59:52;;;;;;;52.95;36.15;;;9.30;99.90;;;;;;4969319;28;20533;-66
2021/10/29 06:02:22;;;;;;;56.95;38.33;;;9.30;99.90;;;;;;4937850;28;20418;-69
2021/10/29 06:04:49;;;;;;;53.75;38.13;;;9.20;99.90;;;;;;4948794;28;20520;-65
2021/10/29 06:07:16;;;;;;;59.95;33.35;;;9.20;99.90;;;;;;4951251;28;20097;-76
2021/10/29 06:09:43;;;;;;;55.10;35.83;;;9.20;99.90;;;;;;4949381;28;20051;-65
2021/10/29 06:12:11;;;;;;;51.05;34.78;;;9.20;99.90;;;;;;4945965;28;20055;-67
2021/10/29 06:14:39;;;;;;;48.90;35.38;;;9.10;99.90;;;;;;4949000;28;20047;-68
2021/10/29 06:17:11;;;;;;;55.00;36.15;;;9.10;99.90;;;;;;4949265;28;20171;-68
2021/10/29 06:19:38;;;;;;;50.13;36.75;;;9.10;99.90;;;;;;4962655;28;20113;-66
2021/10/29 06:22:13;;;;;;;53.30;37.13;;;9.10;99.90;;;;;;4965655;28;20434;-66
2021/10/29 06:24:41;;;;;;;49.42;33.22;;;9.10;99.90;;;;;;4965737;28;20540;-65
2021/10/29 06:29:35;;;;;;;55.88;37.25;;;9.00;99.90;;;;;;4967459;28;20153;-65
2021/10/29 06:32:04;;;;;;;51.20;38.55;;;9.00;99.90;;;;;;4966631;28;20464;-72
2021/10/29 06:34:34;;;;;;;50.65;35.42;;;9.00;99.90;;;;;;4967290;28;20042;-71
2021/10/29 06:37:03;;;;;;;50.22;36.10;;;8.90;99.90;;;;;;4966872;28;20047;-65
2021/10/29 06:39:30;;;;;;;52.95;35.60;;;8.90;99.90;;;;;;4970411;28;20512;-68
2021/10/29 06:41:58;;;;;;;50.78;34.38;;;8.90;99.90;;;;;;4971251;28;20042;-68
2021/10/29 06:44:38;;;;;;;51.28;35.88;;;8.90;99.90;;;;;;4968735;28;20078;-67
2021/10/29 07:00:37;;;;;;;58.80;38.85;;;9.00;99.90;;;;;;4968557;28;20073;-67
2021/10/29 07:41:23;;;;;;;51.33;35.83;;;9.30;99.90;;;;;;4967808;28;20047;-68
2021/10/29 07:43:53;;;;;;;59.15;40.28;;;9.40;99.90;;;;;;4972153;28;20058;-66
2021/10/29 07:46:20;;;;;;;56.15;37.10;;;9.40;99.90;;;;;;4950133;28;20472;-66
2021/10/29 07:48:47;;;;;;;55.20;37.70;;;9.40;99.90;;;;;;4951031;28;20051;-66
2021/10/29 07:51:15;;;;;;;59.25;39.78;;;9.40;99.90;;;;;;4951325;28;20047;-70
2021/10/29 07:53:42;;;;;;;57.00;37.40;;;9.50;99.90;;;;;;4952047;28;20122;-66
2021/10/29 07:56:09;;;;;;;53.83;39.22;;;9.60;99.90;;;;;;4952579;28;20405;-65
2021/10/29 07:58:36;;;;;;;59.75;39.40;;;9.70;99.90;;;;;;4969375;28;20050;-69
2021/10/29 08:01:03;;;;;;;56.60;38.67;;;9.70;99.90;;;;;;4970663;28;20070;-69
2021/10/29 08:03:30;;;;;;;51.88;34.85;;;9.80;99.90;;;;;;4970512;28;20453;-66
2021/10/29 08:05:57;;;;;;;51.20;37.92;;;9.80;99.90;;;;;;4970190;28;20113;-66
2021/10/29 08:08:26;;;;;;;57.67;37.78;;;9.90;99.90;;;;;;4971920;28;20046;-67
2021/10/29 08:10:53;;;;;;;51.13;34.47;;;9.90;99.90;;;;;;4971737;28;20399;-66
2021/10/29 08:13:21;;;;;;;53.88;35.38;;;10.00;99.90;;;;;;4970256;28;20047;-69
2021/10/29 08:15:53;;;;;;;53.85;34.05;;;10.00;99.90;;;;;;4984419;28;20146;-65
2021/10/29 08:18:21;;;;;;;50.10;34.80;;;10.00;99.90;;;;;;4969056;28;20081;-65
2021/10/29 08:20:48;;;;;;;50.55;37.00;;;10.00;99.90;;;;;;4967810;28;20466;-81
2021/10/29 08:23:15;;;;;;;57.20;38.15;;;10.00;99.90;;;;;;4962892;28;20437;-73
2021/10/29 08:25:42;;;;;;;51.20;36.35;;;10.10;99.90;;;;;;4951226;28;20122;-64
2021/10/29 08:28:09;;;;;;;57.38;37.05;;;10.20;99.90;;;;;;4966786;28;20520;-66
2021/10/29 08:30:49;;;;;;;51.72;34.60;;;10.20;99.90;;;;;;4970110;28;20054;-65
2021/10/29 08:33:18;;;;;;;57.47;35.83;;;10.20;99.90;;;;;;4969194;28;20514;-67
2021/10/29 08:35:45;;;;;;;57.65;36.30;;;10.30;99.90;;;;;;4969520;28;20062;-70
2021/10/29 08:38:14;;;;;;;59.22;36.53;;;10.30;99.90;;;;;;4968374;28;20073;-65
2021/10/29 08:40:41;;;;;;;57.47;34.90;;;10.40;99.90;;;;;;4970249;28;20047;-68
2021/10/29 08:43:09;;;;;;;52.28;33.75;;;10.40;99.90;;;;;;4969088;28;20105;-64
2021/10/29 08:45:36;;;;;;;47.30;32.75;;;10.50;99.90;;;;;;4970396;28;20053;-65
2021/10/29 08:48:05;;;;;;;45.40;32.92;;;10.50;99.90;;;;;;4965630;28;20043;-65
2021/10/29 08:50:32;;;;;;;47.42;34.60;;;10.60;99.90;;;;;;4967586;28;20078;-65
2021/10/29 08:53:01;;;;;;;45.47;32.63;;;10.60;99.90;;;;;;4961179;28;20519;-69
2021/10/29 08:55:31;;;;;;;49.03;35.25;;;10.60;99.90;;;;;;4970287;28;20051;-64
2021/10/29 08:58:01;;;;;;;53.95;34.08;;;10.70;99.90;;;;;;4968967;28;20098;-67
2021/10/29 09:00:34;;;;;;;47.38;35.13;;;10.70;99.90;;;;;;4967392;28;20050;-65
2021/10/29 09:05:47;;;;;;;41.72;31.10;;;10.90;99.90;;;;;;4968964;28;20066;-70
2021/10/29 09:08:32;;;;;;;48.10;35.75;;;10.90;99.90;;;;;;4966546;28;20047;-67
2021/10/29 09:31:30;;;;;;;49.03;33.80;;;11.30;99.90;;;;;;4968819;28;20050;-68
2021/10/29 09:34:03;;;;;;;45.28;33.13;;;11.30;99.90;;;;;;4969444;28;20197;-65
2021/10/29 09:36:37;;;;;;;53.00;34.63;;;11.40;99.90;;;;;;4966974;28;20050;-65
2021/10/29 09:39:08;;;;;;;57.72;33.83;;;11.40;99.90;;;;;;4967598;28;20043;-69
2021/10/29 09:42:12;;;;;;;51.00;35.17;;;11.30;99.90;;;;;;4968260;28;20047;-73
2021/10/29 09:44:44;;;;;;;48.28;31.85;;;11.30;99.90;;;;;;4970333;28;20043;-65
2021/10/29 09:47:13;;;;;;;43.85;34.65;;;11.30;99.90;;;;;;4967225;28;20081;-66
2021/10/29 09:50:05;;;;;;;55.85;34.03;;;11.30;99.90;;;;;;4975980;28;20516;-66
2021/10/29 09:52:46;;;;;;;47.10;33.78;;;11.30;99.90;;;;;;4966902;28;20077;-68
2021/10/29 09:55:19;;;;;;;55.10;34.50;;;11.40;99.90;;;;;;4967347;28;20038;-75
2021/10/29 09:57:47;;;;;;;49.67;33.80;;;11.40;99.90;;;;;;4974962;28;20053;-69
2021/10/29 10:00:15;;;;;;;42.60;31.27;;;11.30;99.90;;;;;;4966088;28;20731;-72
2021/10/29 10:02:45;;;;;;;43.53;32.95;;;11.40;99.90;;;;;;4954901;28;20097;-66
2021/10/29 10:05:14;;;;;;;45.38;32.00;;;11.40;99.90;;;;;;4956791;28;20154;-74
2021/10/29 10:07:45;;;;;;;48.85;35.75;;;11.40;99.90;;;;;;4960394;28;20054;-72
2021/10/29 10:10:12;;;;;;;48.28;33.03;;;11.40;99.90;;;;;;4965894;28;20054;-66
2021/10/29 10:12:42;;;;;;;51.70;36.50;;;11.40;99.90;;;;;;4976501;28;20050;-68
2021/10/29 10:15:11;;;;;;;47.35;34.35;;;11.40;99.90;;;;;;4975686;28;20412;-65
2021/10/29 10:17:38;;;;;;;43.97;33.00;;;11.50;99.90;;;;;;4979784;28;20038;-66
2021/10/29 10:20:07;;;;;;;43.20;32.60;;;11.50;99.90;;;;;;4973662;28;20145;-65
2021/10/29 10:22:44;;;;;;;45.10;33.67;;;11.50;99.90;;;;;;4974126;28;20130;-66
2021/10/29 10:25:28;;;;;;;44.40;32.92;;;11.50;99.90;;;;;;4977298;28;20043;-66
2021/10/29 10:42:16;;;;;;;54.63;37.72;;;11.40;99.90;;;;;;4954921;28;20074;-65
2021/10/29 10:45:40;;;;;;;53.78;35.05;;;11.50;99.90;;;;;;4962249;28;20431;-76
2021/10/29 10:47:47;;;;;;;51.08;36.65;;;11.50;99.90;;;;;;4969844;28;20066;-65
2021/10/29 10:50:27;;;;;;;51.88;34.85;;;11.40;99.90;;;;;;4972925;28;20042;-66
2021/10/29 10:53:14;;;;;;;46.38;36.67;;;11.40;99.90;;;;;;4966530;28;20131;-66
2021/10/29 11:01:44;;;;;;;43.58;35.25;;;11.30;99.90;;;;;;4955272;28;20055;-65
2021/10/29 11:10:00;;;;;;;42.80;32.55;;;11.20;99.90;;;;;;4969386;28;20062;-68
2021/10/29 11:12:43;;;;;;;45.95;34.45;;;11.20;99.90;;;;;;4988123;28;20445;-73
2021/10/29 11:15:23;;;;;;;52.08;35.90;;;11.30;99.90;;;;;;4973526;28;20097;-70
2021/10/29 11:17:53;;;;;;;48.85;37.15;;;11.20;99.90;;;;;;4974182;28;20063;-67
2021/10/29 11:20:42;;;;;;;46.53;34.05;;;11.20;99.90;;;;;;4971261;28;20043;-65
2021/10/29 11:23:34;;;;;;;41.30;33.08;;;11.20;99.90;;;;;;4954041;28;20074;-67
2021/10/29 11:26:19;;;;;;;47.30;34.17;;;11.30;99.90;;;;;;4969024;28;20054;-65
2021/10/29 11:28:50;;;;;;;45.72;33.08;;;11.30;99.90;;;;;;4967777;28;20047;-65
2021/10/29 11:31:21;;;;;;;51.58;34.03;;;11.30;99.90;;;;;;4952154;28;20131;-69
2021/10/29 11:33:51;;;;;;;43.35;31.55;;;11.40;99.90;;;;;;4953309;28;20130;-65
2021/10/29 11:36:40;;;;;;;39.17;30.13;;;11.50;99.90;;;;;;4953279;28;20055;-65
2021/10/29 11:39:12;;;;;;;45.28;34.70;;;11.60;99.90;;;;;;4953094;28;20091;-70
2021/10/29 11:41:41;;;;;;;45.10;34.65;;;11.60;99.90;;;;;;4947680;28;20051;-67
2021/10/29 11:44:12;;;;;;;43.83;31.25;;;11.60;99.90;;;;;;4951735;28;20497;-70
2021/10/29 11:46:41;;;;;;;42.45;31.73;;;11.60;99.90;;;;;;4952807;28;20118;-74
2021/10/29 11:49:10;;;;;;;41.95;32.67;;;11.60;99.90;;;;;;4955040;28;20101;-65
2021/10/29 11:51:39;;;;;;;40.95;32.83;;;11.60;99.90;;;;;;4953410;28;20039;-65
2021/10/29 11:54:24;;;;;;;44.97;32.13;;;11.60;99.90;;;;;;4955810;28;20106;-69
2021/10/29 11:57:26;;;;;;;43.97;32.53;;;11.60;99.90;;;;;;4951056;28;20102;-65
2021/10/29 12:00:21;;;;;;;46.53;35.42;;;11.60;99.90;;;;;;4951134;28;20059;-67
2021/10/29 12:08:23;;;;;;;49.72;36.47;;;11.40;99.90;;;;;;4968500;28;20631;-65
2021/10/29 12:10:58;;;;;;;50.70;36.75;;;11.30;99.90;;;;;;4969888;28;20058;-68
2021/10/29 12:13:27;;;;;;;48.85;37.50;;;11.20;99.90;;;;;;4969641;28;20050;-65
2021/10/29 12:15:55;;;;;;;47.75;35.30;;;11.20;99.90;;;;;;4970341;28;20043;-69
2021/10/29 12:18:32;;;;;;;52.22;39.70;;;11.10;99.90;;;;;;4967249;28;20062;-68
2021/10/29 12:20:59;;;;;;;56.00;40.72;;;11.10;99.90;;;;;;4969603;28;20055;-68
2021/10/29 12:23:29;;;;;;;55.75;40.70;;;11.00;99.90;;;;;;4970201;28;20113;-72
2021/10/29 12:28:29;;;;;;;53.88;40.38;;;11.00;99.90;;;;;;4971064;28;20049;-65
2021/10/29 12:31:06;;;;;;;59.50;40.65;;;11.00;99.90;;;;;;4968922;28;20062;-66
2021/10/29 13:01:56;;;;;;;58.72;41.10;;;10.70;99.90;;;;;;4969371;28;20053;-64
2021/10/29 13:04:47;;;;;;;58.08;39.30;;;10.60;99.90;;;;;;4966107;28;20055;-65
2021/10/29 13:07:14;;;;;;;57.28;40.20;;;10.60;99.90;;;;;;4964830;28;20466;-65
2021/10/29 13:09:41;;;;;;;53.33;38.85;;;10.60;99.90;;;;;;4969159;28;20118;-66
2021/10/29 13:12:29;;;;;;;52.00;40.75;;;10.60;99.90;;;;;;4966369;28;20524;-68
2021/10/29 13:14:59;;;;;;;51.10;38.15;;;10.50;99.90;;;;;;4968690;28;20216;-66
2021/10/29 13:17:31;;;;;;;57.15;40.90;;;10.50;99.90;;;;;;4968453;28;20143;-66
2021/10/29 13:36:50;;;;;;;54.95;41.72;;;10.50;99.90;;;;;;4965959;28;20051;-68
2021/10/29 13:52:40;;;;;;;53.08;41.20;;;10.40;99.90;;;;;;4961101;28;20051;-65
2021/10/29 14:32:36;;;;;;;53.60;39.75;;;10.10;99.90;;;;;;4947362;28;20059;-65
2021/10/29 14:35:03;;;;;;;57.53;40.65;;;10.10;99.90;;;;;;4962119;28;20051;-68
2021/10/29 14:40:21;;;;;;;54.70;41.08;;;10.10;99.90;;;;;;4943253;28;20170;-69
2021/10/29 14:42:53;;;;;;;55.33;40.72;;;10.10;99.90;;;;;;4947756;28;20098;-67
2021/10/29 15:17:31;;;;;;;66.05;47.95;;;9.50;99.90;;;;;;4952418;28;20111;-66
2021/10/29 15:31:38;;;;;;;68.50;46.10;;;9.40;99.90;;;;;;4969921;28;20051;-65
2021/10/29 15:42:24;;;;;;;71.68;47.22;;;9.30;99.90;;;;;;4948339;28;20078;-72
2021/10/29 15:45:33;;;;;;;74.03;47.13;;;9.20;99.90;;;;;;4942078;28;20047;-67
2021/10/29 15:47:47;;;;;;;77.30;47.85;;;9.20;99.90;;;;;;4954116;28;20051;-68
2021/10/29 15:50:17;;;;;;;76.25;48.22;;;9.20;99.90;;;;;;4948070;28;20113;-69
2021/10/29 15:52:51;;;;;;;72.57;49.13;;;9.20;99.90;;;;;;4949028;28;20062;-68
2021/10/29 15:55:35;;;;;;;73.57;47.40;;;9.20;99.90;;;;;;4961564;28;20587;-66
2021/10/29 15:58:52;;;;;;;72.85;48.28;;;9.10;99.90;;;;;;4967970;28;20822;-70
2021/10/29 16:00:58;;;;;;;73.63;50.58;;;9.20;99.90;;;;;;4972169;28;20129;-65
2021/10/29 16:17:15;;;;;;;67.03;45.78;;;9.00;99.90;;;;;;4968472;28;20047;-67
2021/10/29 16:19:45;;;;;;;64.97;44.53;;;9.00;99.90;;;;;;4945718;28;20148;-66
2021/10/29 16:22:21;;;;;;;;;;;9.00;99.90;;;;;;4934889;28;20051;-67
2021/10/29 16:27:33;;;;;;;67.25;46.55;;;9.00;99.90;;;;;;4938188;28;20066;-75
2021/10/29 16:30:01;;;;;;;65.03;46.97;;;9.00;99.90;;;;;;4933365;28;20054;-78
2021/10/29 16:32:50;;;;;;;71.65;47.75;;;9.00;99.90;;;;;;4936115;28;20046;-78
2021/10/29 16:35:15;;;;;;;63.17;44.80;;;9.00;99.90;;;;;;4943713;28;21385;-70
2021/10/29 16:37:44;;;;;;;76.60;47.25;;;9.00;99.90;;;;;;4937140;28;20129;-65
2021/10/29 16:40:12;;;;;;;74.35;50.13;;;9.00;99.90;;;;;;4930845;28;20074;-65
2021/10/29 16:42:41;;;;;;;73.18;45.83;;;9.00;99.90;;;;;;4932494;28;20173;-70
2021/10/29 16:45:10;;;;;;;67.50;45.50;;;9.10;99.90;;;;;;4936297;28;20115;-69
2021/10/29 16:47:36;;;;;;;65.75;46.00;;;9.10;99.90;;;;;;4939529;28;20158;-79
2021/10/29 16:50:05;;;;;;;63.42;48.05;;;9.10;99.90;;;;;;4959083;28;20078;-68
2021/10/29 16:52:32;;;;;;;63.85;45.92;;;9.10;99.90;;;;;;4971530;28;20046;-66
2021/10/29 16:54:59;;;;;;;65.78;45.33;;;9.10;99.90;;;;;;4965709;28;20050;-66
2021/10/29 16:57:26;;;;;;;69.53;42.90;;;9.00;99.90;;;;;;4967641;28;20106;-65
2021/10/29 16:59:53;;;;;;;58.45;43.38;;;9.00;99.90;;;;;;4966010;28;20070;-65
2021/10/29 17:02:20;;;;;;;66.28;43.72;;;9.00;99.90;;;;;;4966633;28;20851;-66
2021/10/29 17:04:49;;;;;;;59.17;43.58;;;9.00;99.90;;;;;;4963956;28;20074;-65
2021/10/29 17:07:16;;;;;;;58.20;43.80;;;9.00;99.90;;;;;;4956939;28;20114;-65
2021/10/29 17:09:44;;;;;;;64.25;45.50;;;8.90;99.90;;;;;;4948013;28;20075;-65
2021/10/29 17:12:11;;;;;;;61.38;44.58;;;8.90;99.90;;;;;;4948649;28;20134;-65
2021/10/29 17:14:38;;;;;;;56.78;42.90;;;8.90;99.90;;;;;;4957909;28;20121;-66
2021/10/29 17:17:07;;;;;;;63.53;43.53;;;8.90;99.90;;;;;;4948333;28;20131;-71
2021/10/29 17:19:34;;;;;;;64.93;47.15;;;8.80;99.90;;;;;;4954815;28;20102;-65
2021/10/29 17:22:01;;;;;;;64.25;43.53;;;8.80;99.90;;;;;;4946153;28;20091;-73
2021/10/29 17:24:28;;;;;;;58.45;44.70;;;8.80;99.90;;;;;;4949343;28;20166;-70
2021/10/29 17:26:55;;;;;;;61.15;45.70;;;8.80;99.90;;;;;;4946685;28;20047;-68
2021/10/29 17:29:22;;;;;;;55.90;43.78;;;8.80;99.90;;;;;;4953876;28;20117;-70
2021/10/29 17:31:49;;;;;;;63.30;47.25;;;8.80;99.90;;;;;;4946890;28;20162;-69
2021/10/29 17:34:16;;;;;;;63.40;48.47;;;8.80;99.90;;;;;;4952287;28;20051;-66
2021/10/29 17:36:43;;;;;;;58.10;42.25;;;8.80;99.90;;;;;;4952914;28;20074;-73